Time;durP1;ratioP1;P1;durP2;ratioP2;P2;SDS_P1;SDS_P2;PMS_P1;PMS_P2;Temp;Humidity;BMP_temperature;BMP_pressure;BME280_temperature;BME280_humidity;BME280_pressure;Samples;Min_cycle;Max_cycle;Signal;HPM_P1;HPM_P2
2023/10/24 00:01:53;;;;;;;11.30;6.40;;;;;;;16.13;61.37;99927.84;107906;1256;71583;-66
2023/10/24 00:04:19;;;;;;;9.50;7.10;;;;;;;16.23;61.00;99924.40;107901;1260;70288;-66
2023/10/24 00:06:46;;;;;;;11.90;6.70;;;;;;;16.29;60.91;99924.39;107883;1257;72515;-66
2023/10/24 00:09:13;;;;;;;14.50;7.10;;;;;;;16.24;61.09;99924.36;107849;1257;61683;-66
2023/10/24 00:11:40;;;;;;;9.10;6.80;;;;;;;16.30;60.87;99926.09;108152;1257;59982;-65
2023/10/24 00:14:06;;;;;;;10.10;6.90;;;;;;;16.31;60.82;99927.23;108010;1254;70698;-66
2023/10/24 00:16:33;;;;;;;13.80;7.60;;;;;;;16.44;60.32;99920.39;108112;1254;70582;-66
2023/10/24 00:19:00;;;;;;;18.70;7.90;;;;;;;16.48;60.17;99926.70;108102;1257;72458;-66
2023/10/24 00:21:26;;;;;;;11.00;6.80;;;;;;;16.45;60.31;99928.82;108103;1255;62130;-67
2023/10/24 00:23:53;;;;;;;10.50;6.80;;;;;;;16.39;60.49;99928.36;108087;1254;59398;-67
2023/10/24 00:26:20;;;;;;;10.90;7.90;;;;;;;16.36;60.54;99932.77;108097;1253;72874;-66
2023/10/24 00:28:48;;;;;;;10.10;7.10;;;;;;;16.49;60.02;99930.86;108112;1254;69100;-66
2023/10/24 00:31:15;;;;;;;12.10;7.80;;;;;;;16.43;60.10;99938.73;108086;1254;72444;-66
2023/10/24 00:33:42;;;;;;;11.00;7.20;;;;;;;16.44;60.05;99938.31;108019;1254;61699;-63
2023/10/24 00:36:08;;;;;;;10.90;6.90;;;;;;;16.44;59.92;99937.55;108055;1259;59701;-65
2023/10/24 00:38:35;;;;;;;11.50;6.70;;;;;;;16.37;60.08;99936.06;108087;1253;73627;-65
2023/10/24 00:41:02;;;;;;;10.40;7.10;;;;;;;16.26;60.34;99939.08;108037;1254;70326;-66
2023/10/24 00:43:28;;;;;;;10.30;7.10;;;;;;;16.37;59.79;99941.58;108158;1254;71671;-64
2023/10/24 00:45:55;;;;;;;12.00;7.30;;;;;;;16.22;60.11;99943.77;108093;1253;61997;-65
2023/10/24 00:48:22;;;;;;;10.40;7.20;;;;;;;16.08;60.54;99947.98;108086;1254;59087;-67
2023/10/24 00:50:48;;;;;;;10.20;7.00;;;;;;;16.02;60.86;99949.80;108033;1254;59492;-67
2023/10/24 00:53:15;;;;;;;11.50;7.80;;;;;;;16.01;60.87;99953.25;108171;1254;59518;-66
2023/10/24 00:55:41;;;;;;;11.70;6.80;;;;;;;15.96;60.97;99956.05;108123;1254;72745;-65
2023/10/24 00:58:08;;;;;;;12.70;7.20;;;;;;;15.92;61.33;99952.89;108109;1254;59617;-67
2023/10/24 01:00:35;;;;;;;11.40;7.30;;;;;;;15.90;61.42;99953.71;108139;1254;59601;-66
2023/10/24 01:03:02;;;;;;;10.50;7.00;;;;;;;15.97;61.25;99957.17;108136;1256;73052;-65
2023/10/24 01:05:29;;;;;;;13.50;7.80;;;;;;;15.99;61.18;99954.23;108154;1257;70396;-67
2023/10/24 01:07:56;;;;;;;12.50;7.30;;;;;;;16.00;61.16;99956.63;108038;1253;72703;-67
2023/10/24 01:10:22;;;;;;;12.60;6.80;;;;;;;16.00;61.06;99956.10;108237;1257;59514;-66
2023/10/24 01:12:49;;;;;;;10.60;7.10;;;;;;;15.97;61.17;99960.02;108303;1253;59539;-66
2023/10/24 01:15:16;;;;;;;11.20;7.20;;;;;;;15.89;61.33;99960.70;108117;1254;73452;-66
2023/10/24 01:17:50;;;;;;;8.80;6.70;;;;;;;15.96;61.13;99961.48;108238;1254;69200;-67
2023/10/24 01:20:17;;;;;;;13.10;7.00;;;;;;;15.99;61.03;99959.88;108271;1254;72508;-67
2023/10/24 01:22:45;;;;;;;13.70;7.40;;;;;;;15.84;61.37;99962.27;108223;1253;61868;-67
2023/10/24 01:25:13;;;;;;;9.50;6.90;;;;;;;15.77;61.50;99962.50;108113;1254;59383;-67
2023/10/24 01:27:45;;;;;;;11.10;6.60;;;;;;;15.77;61.36;99967.66;108107;1253;71200;-68
2023/10/24 01:30:12;;;;;;;10.10;7.00;;;;;;;15.94;60.87;99968.20;108090;1254;70386;-66
2023/10/24 01:32:41;;;;;;;11.90;7.60;;;;;;;15.95;60.73;99964.94;108217;1254;73013;-65
2023/10/24 01:35:09;;;;;;;14.50;7.50;;;;;;;15.76;60.93;99967.48;108073;1254;60252;-65
2023/10/24 01:37:36;;;;;;;8.60;6.50;;;;;;;15.47;61.69;99969.08;108210;1254;59368;-66
2023/10/24 01:40:04;;;;;;;11.50;7.60;;;;;;;15.36;61.93;99972.19;108048;1254;73063;-65
2023/10/24 01:42:31;;;;;;;9.10;6.60;;;;;;;15.33;62.05;99976.26;108198;1253;70312;-66
2023/10/24 01:44:57;;;;;;;10.30;7.50;;;;;;;15.37;61.88;99973.20;108083;1254;72535;-66
2023/10/24 01:47:24;;;;;;;14.40;8.20;;;;;;;15.23;62.02;99975.42;108051;1253;61709;-66
2023/10/24 01:49:51;;;;;;;11.50;7.80;;;;;;;15.11;62.50;99973.85;108201;1254;60264;-65
2023/10/24 01:52:17;;;;;;;10.50;7.50;;;;;;;15.07;62.54;99968.95;108142;1253;73127;-66
2023/10/24 01:54:45;;;;;;;9.70;7.00;;;;;;;15.00;62.87;99970.58;108166;1253;70282;-65
2023/10/24 01:57:12;;;;;;;12.10;7.90;;;;;;;15.10;62.42;99970.01;108096;1253;72305;-67
2023/10/24 01:59:39;;;;;;;12.00;8.00;;;;;;;15.07;62.32;99971.08;108044;1254;61793;-67
2023/10/24 02:02:05;;;;;;;8.70;6.90;;;;;;;15.00;62.54;99976.42;108176;1254;59595;-66
2023/10/24 02:04:32;;;;;;;13.20;8.60;;;;;;;14.97;62.53;99978.39;108221;1254;72987;-66
2023/10/24 02:06:59;;;;;;;10.20;7.20;;;;;;;14.95;62.46;99977.60;108172;1253;70088;-66
2023/10/24 02:09:27;;;;;;;12.40;8.00;;;;;;;14.96;62.37;99978.77;108164;1254;72649;-65
2023/10/24 02:11:54;;;;;;;15.20;8.80;;;;;;;14.90;62.49;99977.52;108157;1254;60855;-67
2023/10/24 02:14:20;;;;;;;15.40;10.10;;;;;;;14.84;62.65;99978.18;108179;1253;59175;-66
2023/10/24 02:16:49;;;;;;;17.20;8.80;;;;;;;14.85;62.64;99982.41;108062;1254;72785;-66
2023/10/24 02:19:15;;;;;;;18.30;8.50;;;;;;;14.77;62.74;99980.54;108145;1254;70057;-66
2023/10/24 02:21:42;;;;;;;9.90;7.00;;;;;;;14.77;62.80;99986.39;108112;1254;72892;-64
2023/10/24 02:24:09;;;;;;;14.00;8.80;;;;;;;14.75;62.78;99985.44;108157;1253;61738;-66
2023/10/24 02:26:35;;;;;;;11.80;7.70;;;;;;;14.76;62.72;99985.55;107983;1254;59861;-65
2023/10/24 02:29:02;;;;;;;10.50;8.00;;;;;;;14.65;63.00;99985.45;108035;1254;72945;-66
2023/10/24 02:31:29;;;;;;;15.30;8.00;;;;;;;14.66;62.99;99985.21;108265;1254;70092;-64
2023/10/24 02:33:55;;;;;;;13.20;9.30;;;;;;;14.59;63.11;99986.34;108238;1254;72833;-65
2023/10/24 02:36:22;;;;;;;12.60;8.20;;;;;;;14.57;63.10;99984.19;108090;1254;59601;-66
2023/10/24 02:38:49;;;;;;;12.70;8.40;;;;;;;14.36;63.65;99984.92;108146;1254;59970;-66
2023/10/24 02:41:15;;;;;;;11.30;8.30;;;;;;;14.24;64.06;99976.89;108299;1254;72577;-66
2023/10/24 02:43:42;;;;;;;15.90;9.20;;;;;;;14.22;64.13;99978.64;108280;1254;59640;-66
2023/10/24 02:46:08;;;;;;;11.80;8.10;;;;;;;14.09;64.47;99978.12;108315;1256;72336;-66
2023/10/24 02:48:37;;;;;;;14.10;9.10;;;;;;;14.13;64.40;99977.71;108285;1252;61163;-67
2023/10/24 02:51:04;;;;;;;16.60;9.50;;;;;;;14.04;64.65;99975.50;108320;1254;60185;-67
2023/10/24 02:53:31;;;;;;;10.40;7.70;;;;;;;13.99;64.88;99977.05;108371;1254;73101;-67
2023/10/24 02:56:00;;;;;;;12.80;9.20;;;;;;;14.03;64.96;99978.76;108135;1254;59608;-67
2023/10/24 02:58:27;;;;;;;14.00;8.80;;;;;;;13.98;64.97;99981.16;108274;1253;71401;-66
2023/10/24 03:00:54;;;;;;;11.90;8.70;;;;;;;13.89;65.34;99978.99;108265;1253;61426;-65
2023/10/24 03:03:20;;;;;;;14.50;9.50;;;;;;;13.87;65.30;99981.58;108024;1257;60582;-66
2023/10/24 03:05:47;;;;;;;12.50;9.20;;;;;;;13.99;65.04;99978.45;108294;1254;72770;-67
2023/10/24 03:08:14;;;;;;;17.90;9.50;;;;;;;14.08;64.56;99972.84;108287;1254;70680;-66
2023/10/24 03:10:40;;;;;;;14.40;9.20;;;;;;;13.98;64.89;99976.38;108306;1256;72619;-66
2023/10/24 03:13:07;;;;;;;15.10;9.50;;;;;;;13.88;65.13;99972.66;108285;1253;60960;-66
2023/10/24 03:15:35;;;;;;;15.10;9.90;;;;;;;13.78;65.42;99976.75;108104;1254;59501;-67
2023/10/24 03:18:02;;;;;;;15.20;9.10;;;;;;;13.80;65.35;99975.77;108242;1252;73074;-66
2023/10/24 03:20:28;;;;;;;13.30;8.80;;;;;;;13.84;65.20;99973.09;108269;1257;70331;-66
2023/10/24 03:22:55;;;;;;;13.90;9.40;;;;;;;13.73;65.68;99971.19;108302;1253;72371;-67
2023/10/24 03:25:24;;;;;;;15.50;9.60;;;;;;;13.69;65.75;99969.30;108256;1256;59692;-67
2023/10/24 03:27:54;;;;;;;17.50;11.00;;;;;;;13.74;65.62;99971.65;108350;1252;59538;-66
2023/10/24 03:30:21;;;;;;;14.10;9.30;;;;;;;13.73;65.64;99973.67;108381;1252;73208;-66
2023/10/24 03:32:48;;;;;;;15.40;9.90;;;;;;;13.79;65.50;99974.03;108282;1254;70367;-67
2023/10/24 03:35:14;;;;;;;16.00;13.00;;;;;;;13.75;65.53;99976.21;108273;1253;72434;-66
2023/10/24 03:37:41;;;;;;;14.30;8.90;;;;;;;13.71;65.71;99975.34;108282;1252;60895;-66
2023/10/24 03:40:09;;;;;;;14.20;10.00;;;;;;;13.66;65.88;99976.48;108295;1253;59006;-66
2023/10/24 03:42:36;;;;;;;17.30;10.20;;;;;;;13.71;65.68;99979.08;108298;1254;73608;-66
2023/10/24 03:45:04;;;;;;;17.40;10.30;;;;;;;13.66;66.02;99981.98;108291;1253;69219;-66
2023/10/24 03:47:32;;;;;;;17.10;10.80;;;;;;;13.56;66.43;99982.33;108238;1253;73090;-67
2023/10/24 03:49:59;;;;;;;15.40;9.60;;;;;;;13.57;66.64;99981.19;108232;1256;60310;-66
2023/10/24 03:52:25;;;;;;;18.30;9.60;;;;;;;13.65;66.29;99983.23;108249;1252;60274;-66
2023/10/24 03:54:52;;;;;;;14.70;9.70;;;;;;;13.55;66.71;99989.39;108239;1253;74839;-65
2023/10/24 03:57:18;;;;;;;19.10;11.00;;;;;;;13.31;67.71;99989.58;108318;1254;67951;-67
2023/10/24 03:59:45;;;;;;;16.30;11.10;;;;;;;13.33;67.70;99993.17;108296;1256;72920;-66
2023/10/24 04:02:12;;;;;;;15.00;11.00;;;;;;;13.31;67.76;99992.92;108342;1253;60312;-66
2023/10/24 04:04:38;;;;;;;18.80;12.40;;;;;;;13.40;67.54;99996.72;108274;1253;60418;-68
2023/10/24 04:07:05;;;;;;;14.10;10.90;;;;;;;13.38;67.54;99999.08;108319;1254;73576;-67
2023/10/24 04:09:32;;;;;;;16.20;11.80;;;;;;;13.37;67.54;99992.44;108320;1253;70188;-66
2023/10/24 04:12:06;;;;;;;20.10;11.80;;;;;;;13.38;67.40;99993.11;108309;1252;72494;-66
2023/10/24 04:14:32;;;;;;;14.70;10.10;;;;;;;13.36;67.33;99990.91;108140;1254;61998;-66
2023/10/24 04:16:59;;;;;;;18.50;11.40;;;;;;;13.22;67.73;99994.56;108298;1253;60273;-65
2023/10/24 04:19:26;;;;;;;22.50;12.20;;;;;;;13.44;67.06;99995.81;108300;1252;73786;-66
2023/10/24 04:21:53;;;;;;;16.50;11.10;;;;;;;13.47;66.91;99994.41;108270;1253;69777;-66
2023/10/24 04:24:19;;;;;;;21.40;12.90;;;;;;;13.54;66.52;99991.02;108282;1254;60504;-66
2023/10/24 04:26:46;;;;;;;22.40;11.40;;;;;;;13.49;66.51;99994.64;108258;1254;60991;-66
2023/10/24 04:29:12;;;;;;;17.30;11.00;;;;;;;13.42;66.67;99995.55;108120;1253;60439;-66
2023/10/24 04:31:39;;;;;;;17.60;12.30;;;;;;;13.40;66.53;100000.38;108303;1252;72717;-66
2023/10/24 04:34:06;;;;;;;15.10;10.20;;;;;;;13.45;66.28;100002.27;108313;1256;60287;-66
2023/10/24 04:36:32;;;;;;;18.90;12.40;;;;;;;13.42;66.30;100004.18;108275;1252;72439;-66
2023/10/24 04:38:59;;;;;;;18.90;12.40;;;;;;;13.50;66.01;100007.81;108229;1253;60312;-67
2023/10/24 04:41:26;;;;;;;19.80;11.50;;;;;;;13.27;66.69;100007.58;108263;1252;60403;-67
2023/10/24 04:43:53;;;;;;;23.20;13.10;;;;;;;13.31;66.73;100008.46;108251;1253;73753;-66
2023/10/24 04:46:20;;;;;;;19.30;11.50;;;;;;;13.30;66.65;100012.92;108199;1253;70263;-66
2023/10/24 04:48:47;;;;;;;20.80;13.20;;;;;;;13.35;66.58;100012.46;108198;1252;72776;-66
2023/10/24 04:51:13;;;;;;;20.30;13.30;;;;;;;13.36;66.49;100011.73;108215;1252;61320;-66
2023/10/24 04:53:40;;;;;;;18.70;11.40;;;;;;;13.37;66.52;100017.15;108066;1254;59218;-67
2023/10/24 04:56:06;;;;;;;21.00;13.70;;;;;;;13.31;66.72;100022.72;108293;1253;60437;-66
2023/10/24 04:58:35;;;;;;;17.40;11.30;;;;;;;13.27;66.93;100024.34;108063;1252;70369;-66
2023/10/24 05:01:02;;;;;;;19.00;13.00;;;;;;;13.32;67.04;100024.27;108051;1257;72711;-67
2023/10/24 05:03:32;;;;;;;19.60;12.80;;;;;;;13.35;66.93;100026.91;108085;1253;60981;-67
2023/10/24 05:05:59;;;;;;;16.90;12.60;;;;;;;13.30;67.23;100031.42;108014;1253;60293;-67
2023/10/24 05:08:26;;;;;;;19.60;12.60;;;;;;;13.12;68.03;100032.59;108303;1253;73655;-66
2023/10/24 05:10:54;;;;;;;22.50;13.80;;;;;;;13.23;67.72;100032.78;108311;1253;70146;-67
2023/10/24 05:13:20;;;;;;;23.30;14.00;;;;;;;13.31;67.63;100030.14;108273;1253;73262;-66
2023/10/24 05:15:47;;;;;;;21.10;13.90;;;;;;;13.15;68.18;100039.86;108289;1253;61168;-67
2023/10/24 05:18:15;;;;;;;17.90;11.40;;;;;;;13.07;68.76;100038.11;108321;1253;60168;-65
2023/10/24 05:20:42;;;;;;;21.40;14.80;;;;;;;13.21;68.47;100041.17;108365;1254;72813;-65
2023/10/24 05:23:08;;;;;;;21.00;13.40;;;;;;;13.19;68.54;100038.45;108345;1256;69563;-67
2023/10/24 05:25:36;;;;;;;19.70;13.20;;;;;;;13.18;68.78;100043.25;108273;1253;73040;-66
2023/10/24 05:28:03;;;;;;;21.40;13.50;;;;;;;13.21;68.85;100044.67;108285;1254;61118;-67
2023/10/24 05:30:30;;;;;;;18.80;12.60;;;;;;;13.30;68.76;100046.08;108225;1254;60559;-66
2023/10/24 05:32:58;;;;;;;20.70;12.90;;;;;;;13.33;68.87;100056.47;108245;1254;59836;-66
2023/10/24 05:35:25;;;;;;;24.60;15.00;;;;;;;13.37;68.92;100058.40;108259;1256;70170;-66
2023/10/24 05:37:51;;;;;;;19.70;12.90;;;;;;;13.66;69.63;100059.39;108281;1254;72008;-66
2023/10/24 05:40:18;;;;;;;23.40;14.40;;;;;;;14.27;70.44;100057.48;108272;1253;61201;-66
2023/10/24 05:42:45;;;;;;;17.80;11.80;;;;;;;14.85;69.92;100051.66;108264;1253;60306;-68
2023/10/24 05:45:11;;;;;;;16.90;11.50;;;;;;;15.51;68.84;100053.02;108305;1252;73780;-67
2023/10/24 05:47:38;;;;;;;16.30;10.60;;;;;;;16.25;66.65;100048.59;108238;1254;60395;-68
2023/10/24 05:50:05;;;;;;;13.70;8.50;;;;;;;17.02;64.63;100045.36;108161;1252;59708;-68
2023/10/24 05:52:32;;;;;;;16.90;9.80;;;;;;;17.71;62.35;100047.38;108079;1253;61898;-67
2023/10/24 05:54:59;;;;;;;13.20;8.70;;;;;;;18.36;59.44;100048.55;108297;1253;60383;-67
2023/10/24 05:57:25;;;;;;;11.60;8.00;;;;;;;18.93;56.56;100047.20;108293;1254;73143;-66
2023/10/24 05:59:52;;;;;;;14.60;8.00;;;;;;;19.46;55.46;100046.84;108275;1254;69666;-68
2023/10/24 06:02:18;;;;;;;12.90;8.20;;;;;;;19.90;53.00;100046.91;108215;1254;72440;-68
2023/10/24 06:04:45;;;;;;;11.60;7.40;;;;;;;20.30;51.23;100042.86;108102;1252;61787;-67
2023/10/24 06:07:13;;;;;;;12.00;7.30;;;;;;;20.72;48.88;100043.14;108239;1253;60306;-67
2023/10/24 06:09:40;;;;;;;11.80;6.70;;;;;;;21.14;47.79;100041.48;108282;1254;73515;-68
2023/10/24 06:12:08;;;;;;;11.00;7.10;;;;;;;21.50;45.87;100048.11;108253;1254;70330;-67
2023/10/24 06:14:34;;;;;;;10.30;6.80;;;;;;;21.85;45.08;100047.85;108219;1254;72595;-68
2023/10/24 06:17:01;;;;;;;9.30;6.30;;;;;;;22.24;43.38;100053.14;108236;1252;60329;-67
2023/10/24 06:19:29;;;;;;;8.80;6.30;;;;;;;22.49;42.91;100052.96;108194;1253;60178;-68
2023/10/24 06:21:55;;;;;;;9.60;6.50;;;;;;;22.82;42.60;100047.98;108250;1256;73561;-68
2023/10/24 06:24:22;;;;;;;9.80;6.10;;;;;;;23.21;41.72;100047.20;108221;1253;70190;-68
2023/10/24 06:26:49;;;;;;;8.90;5.50;;;;;;;23.62;40.82;100049.88;108156;1256;71666;-68
2023/10/24 06:29:15;;;;;;;9.40;5.60;;;;;;;24.11;39.51;100053.92;108217;1253;60399;-67
2023/10/24 06:31:42;;;;;;;9.10;5.10;;;;;;;24.49;38.10;100050.30;108255;1253;60175;-68
2023/10/24 06:34:09;;;;;;;9.60;5.40;;;;;;;24.85;36.82;100044.34;108138;1252;72352;-67
2023/10/24 06:36:36;;;;;;;10.80;5.40;;;;;;;25.09;36.29;100043.22;108303;1254;70629;-67
2023/10/24 06:39:03;;;;;;;6.20;4.90;;;;;;;25.49;36.16;100047.27;108241;1252;72696;-67
2023/10/24 06:41:30;;;;;;;7.90;4.80;;;;;;;25.89;34.59;100052.23;108263;1254;60252;-66
2023/10/24 06:43:57;;;;;;;9.50;5.30;;;;;;;26.05;34.42;100049.16;108183;1253;60328;-66
2023/10/24 06:46:24;;;;;;;9.50;5.50;;;;;;;26.16;34.45;100048.94;108252;1254;73890;-68
2023/10/24 06:48:52;;;;;;;6.30;4.20;;;;;;;26.39;34.33;100043.42;108273;1254;70197;-69
2023/10/24 06:51:18;;;;;;;8.70;4.40;;;;;;;26.58;33.63;100048.34;108207;1253;72636;-68
2023/10/24 06:53:45;;;;;;;7.80;3.80;;;;;;;26.90;32.64;100046.55;108236;1253;60425;-68
2023/10/24 06:56:11;;;;;;;7.60;4.40;;;;;;;27.05;32.77;100049.23;108218;1252;60540;-69
2023/10/24 06:58:40;;;;;;;8.50;3.70;;;;;;;27.30;31.89;100048.90;108244;1252;60367;-67
2023/10/24 07:01:06;;;;;;;6.80;4.30;;;;;;;27.67;31.51;100050.71;108228;1254;69993;-70
2023/10/24 07:03:33;;;;;;;5.60;4.00;;;;;;;28.06;30.95;100051.78;108057;1252;72769;-68
2023/10/24 07:06:00;;;;;;;5.40;3.70;;;;;;;28.35;29.97;100047.09;108190;1252;60386;-68
2023/10/24 07:08:26;;;;;;;8.40;3.90;;;;;;;28.33;30.01;100052.06;108065;1253;60521;-68
2023/10/24 07:10:53;;;;;;;10.50;4.20;;;;;;;28.29;29.54;100050.97;108212;1253;72740;-69
2023/10/24 07:13:20;;;;;;;7.50;4.00;;;;;;;28.35;29.77;100051.11;108259;1253;70331;-67
2023/10/24 07:15:47;;;;;;;5.90;3.90;;;;;;;28.64;29.56;100053.19;108034;1253;60571;-68
2023/10/24 07:18:13;;;;;;;5.70;3.90;;;;;;;28.99;28.76;100053.16;108226;1252;60181;-67
2023/10/24 07:20:40;;;;;;;4.70;3.60;;;;;;;29.22;28.26;100053.69;108246;1253;60758;-68
2023/10/24 07:23:06;;;;;;;8.40;4.20;;;;;;;29.15;27.72;100053.91;108230;1253;73505;-68
2023/10/24 07:25:33;;;;;;;10.80;4.30;;;;;;;28.89;27.75;100057.59;108243;1256;70110;-68
2023/10/24 07:28:00;;;;;;;6.00;4.00;;;;;;;28.77;28.18;100056.63;108262;1252;71394;-68
2023/10/24 07:30:27;;;;;;;7.90;3.60;;;;;;;28.98;28.03;100055.73;108304;1252;60374;-66
2023/10/24 07:32:54;;;;;;;6.70;3.60;;;;;;;28.92;27.42;100060.44;108277;1253;60287;-67
2023/10/24 07:35:21;;;;;;;9.60;3.60;;;;;;;28.60;28.17;100062.41;108026;1252;73631;-67
2023/10/24 07:37:48;;;;;;;7.60;3.90;;;;;;;28.82;27.98;100064.86;108212;1256;70270;-69
2023/10/24 07:40:15;;;;;;;9.10;4.50;;;;;;;29.00;27.94;100067.42;108225;1256;73172;-68
2023/10/24 07:42:41;;;;;;;9.00;3.80;;;;;;;29.15;27.61;100070.10;108257;1253;60221;-67
2023/10/24 07:45:08;;;;;;;7.00;3.70;;;;;;;29.42;27.28;100067.48;108293;1253;60274;-68
2023/10/24 07:47:35;;;;;;;10.90;3.60;;;;;;;29.62;27.08;100067.34;108314;1252;73589;-68
2023/10/24 07:50:02;;;;;;;11.40;3.80;;;;;;;29.99;27.00;100065.06;108089;1254;70208;-69
2023/10/24 07:52:29;;;;;;;7.50;3.50;;;;;;;30.41;25.99;100072.99;108212;1253;71427;-68
2023/10/24 07:54:56;;;;;;;8.00;3.30;;;;;;;30.68;25.52;100066.63;108276;1253;60329;-69
2023/10/24 07:57:23;;;;;;;9.60;3.70;;;;;;;30.88;25.41;100065.81;108297;1253;60190;-70
2023/10/24 07:59:49;;;;;;;5.70;3.40;;;;;;;31.06;25.32;100065.81;108091;1254;59312;-68
2023/10/24 08:02:16;;;;;;;6.50;3.30;;;;;;;31.24;24.85;100070.29;108268;1254;69538;-68
2023/10/24 08:04:42;;;;;;;5.60;3.10;;;;;;;31.40;24.60;100072.29;108183;1253;72470;-68
2023/10/24 08:07:09;;;;;;;5.80;3.80;;;;;;;31.17;24.38;100072.34;108257;1253;60174;-68
2023/10/24 08:09:36;;;;;;;6.70;3.40;;;;;;;31.10;24.78;100073.11;108327;1253;60251;-68
2023/10/24 08:12:03;;;;;;;4.10;3.20;;;;;;;31.32;24.80;100071.30;108132;1256;73939;-68
2023/10/24 08:14:30;;;;;;;5.50;2.80;;;;;;;31.31;23.91;100071.98;108331;1253;70535;-69
2023/10/24 08:16:58;;;;;;;5.10;3.50;;;;;;;30.73;24.47;100073.27;108393;1252;73079;-69
2023/10/24 08:19:24;;;;;;;5.80;3.10;;;;;;;30.70;24.76;100071.00;108293;1254;59504;-68
2023/10/24 08:21:51;;;;;;;6.00;3.40;;;;;;;31.03;24.42;100071.27;108278;1252;60266;-69
2023/10/24 08:24:18;;;;;;;10.00;3.90;;;;;;;31.18;24.24;100072.86;108277;1254;73598;-67
2023/10/24 08:26:44;;;;;;;7.60;3.40;;;;;;;31.32;24.03;100075.73;108247;1253;70182;-68
2023/10/24 08:29:31;;;;;;;4.40;2.60;;;;;;;31.46;23.72;100083.65;108315;1253;72497;-68
2023/10/24 08:31:57;;;;;;;4.40;2.40;;;;;;;31.55;23.32;100083.45;108339;1253;60634;-68
2023/10/24 08:34:28;;;;;;;5.10;2.60;;;;;;;31.72;23.17;100085.02;108336;1252;60421;-70
2023/10/24 08:36:55;;;;;;;4.90;2.60;;;;;;;31.47;22.96;100080.42;108251;1252;73723;-68
2023/10/24 08:39:23;;;;;;;11.20;3.00;;;;;;;31.43;22.83;100083.83;108226;1253;70126;-68
2023/10/24 08:41:53;;;;;;;5.80;3.20;;;;;;;31.60;22.84;100083.88;108059;1257;73567;-70
2023/10/24 08:44:20;;;;;;;5.30;2.50;;;;;;;31.72;23.01;100087.86;108347;1252;60675;-69
2023/10/24 08:46:46;;;;;;;4.70;3.00;;;;;;;31.93;22.78;100089.52;108153;1253;60376;-69
2023/10/24 08:49:13;;;;;;;6.60;2.90;;;;;;;32.01;22.38;100088.67;108282;1254;73662;-68
2023/10/24 08:51:39;;;;;;;5.90;2.80;;;;;;;31.99;22.62;100089.93;108118;1254;60399;-69
2023/10/24 08:54:06;;;;;;;11.00;3.30;;;;;;;32.13;22.68;100087.30;108337;1253;60443;-69
2023/10/24 08:56:34;;;;;;;4.90;3.20;;;;;;;32.23;22.58;100086.07;108285;1253;60822;-68
2023/10/24 08:59:01;;;;;;;5.60;2.80;;;;;;;32.20;22.77;100082.04;108268;1254;60392;-68
2023/10/24 09:01:27;;;;;;;7.20;3.40;;;;;;;32.28;22.73;100073.91;108111;1252;73764;-68
2023/10/24 09:03:54;;;;;;;5.00;3.00;;;;;;;32.47;22.71;100075.46;108265;1253;70247;-69
2023/10/24 09:06:22;;;;;;;4.30;3.10;;;;;;;32.48;22.21;100076.05;108109;1254;72707;-70
2023/10/24 09:08:49;;;;;;;6.50;3.70;;;;;;;32.38;22.41;100076.05;108065;1253;60379;-68
2023/10/24 09:11:16;;;;;;;4.30;3.70;;;;;;;31.92;22.80;100080.20;108368;1253;61112;-68
2023/10/24 09:13:42;;;;;;;5.30;3.50;;;;;;;31.71;23.13;100075.77;108311;1252;73655;-69
2023/10/24 09:16:10;;;;;;;5.50;3.40;;;;;;;31.26;23.65;100076.66;108275;1252;70485;-69
2023/10/24 09:18:39;;;;;;;6.00;3.50;;;;;;;31.17;23.83;100079.70;108293;1254;72714;-68
2023/10/24 09:21:07;;;;;;;8.50;4.30;;;;;;;30.83;24.09;100083.88;108081;1253;60387;-67
2023/10/24 09:23:35;;;;;;;6.60;4.40;;;;;;;30.67;24.31;100080.56;108255;1253;60178;-69
2023/10/24 09:26:07;;;;;;;11.00;4.10;;;;;;;30.92;23.95;100081.13;108039;1254;73789;-67
2023/10/24 09:28:34;;;;;;;6.10;4.00;;;;;;;30.80;24.20;100078.66;108235;1254;71197;-68
2023/10/24 09:31:01;;;;;;;7.40;3.90;;;;;;;30.76;24.34;100081.86;108232;1253;72525;-67
2023/10/24 09:33:28;;;;;;;8.40;4.20;;;;;;;30.87;24.36;100078.10;108296;1254;60417;-69
2023/10/24 09:35:56;;;;;;;9.60;4.50;;;;;;;30.62;24.68;100080.23;108120;1252;60246;-67
2023/10/24 09:38:42;;;;;;;5.80;3.60;;;;;;;30.20;24.73;100084.11;108346;1252;73856;-68
2023/10/24 09:41:10;;;;;;;8.70;3.90;;;;;;;29.81;24.91;100083.85;108099;1254;70043;-68
2023/10/24 09:43:37;;;;;;;7.10;4.00;;;;;;;29.34;25.58;100073.98;108241;1254;71184;-68
2023/10/24 09:46:03;;;;;;;6.50;4.20;;;;;;;29.06;25.89;100070.25;108021;1252;59524;-68
2023/10/24 09:48:30;;;;;;;7.40;4.00;;;;;;;29.20;25.87;100063.95;107897;1252;60086;-68
2023/10/24 09:50:57;;;;;;;7.80;3.40;;;;;;;29.61;25.85;100065.19;108131;1254;73811;-68
2023/10/24 09:53:24;;;;;;;6.30;4.20;;;;;;;30.14;25.08;100061.32;108080;1253;70582;-69
2023/10/24 09:55:50;;;;;;;6.20;4.10;;;;;;;30.24;24.89;100060.04;108034;1254;60437;-68
2023/10/24 09:58:20;;;;;;;9.70;3.80;;;;;;;29.71;24.62;100063.89;108272;1253;60290;-68
2023/10/24 10:00:47;;;;;;;5.10;3.60;;;;;;;28.45;25.60;100074.80;108247;1253;60454;-67
2023/10/24 10:03:14;;;;;;;6.00;3.50;;;;;;;27.60;26.91;100070.23;108255;1254;73695;-67
2023/10/24 10:05:44;;;;;;;4.80;3.60;;;;;;;27.52;27.29;100062.55;108075;1254;70600;-68
2023/10/24 10:08:11;;;;;;;8.10;4.30;;;;;;;27.75;26.90;100057.13;108081;1253;73195;-68
2023/10/24 10:10:37;;;;;;;6.50;3.70;;;;;;;27.99;26.89;100054.88;108067;1252;60561;-67
2023/10/24 10:13:06;;;;;;;8.00;3.70;;;;;;;28.61;26.54;100050.99;108135;1254;60314;-68
2023/10/24 10:15:49;;;;;;;6.50;3.30;;;;;;;29.16;25.44;100047.19;108280;1254;74025;-69
2023/10/24 10:18:34;;;;;;;8.10;3.90;;;;;;;29.28;25.15;100047.95;108155;1253;70384;-68
2023/10/24 10:21:20;;;;;;;6.10;3.60;;;;;;;29.43;24.99;100043.16;108121;1252;72711;-68
2023/10/24 10:23:49;;;;;;;5.80;3.80;;;;;;;29.55;24.87;100038.23;108094;1253;60148;-67
2023/10/24 10:26:22;;;;;;;5.20;3.50;;;;;;;29.79;25.02;100037.09;108056;1253;60724;-68
2023/10/24 10:29:11;;;;;;;7.00;3.80;;;;;;;30.04;24.62;100037.28;108016;1253;73630;-69
2023/10/24 10:31:37;;;;;;;7.20;3.90;;;;;;;30.02;24.30;100045.02;108031;1253;69182;-67
2023/10/24 10:34:34;;;;;;;10.30;3.80;;;;;;;29.96;24.34;100044.46;108131;1253;72582;-68
2023/10/24 10:37:02;;;;;;;9.20;3.70;;;;;;;30.15;24.16;100040.37;108030;1253;60425;-67
2023/10/24 10:39:29;;;;;;;6.60;3.50;;;;;;;30.31;24.11;100039.83;108143;1253;60279;-68
2023/10/24 10:41:56;;;;;;;5.20;3.80;;;;;;;30.60;23.55;100037.05;108169;1252;73821;-68
2023/10/24 10:44:43;;;;;;;5.10;3.30;;;;;;;30.74;23.53;100039.81;108324;1254;70123;-69
2023/10/24 10:47:13;;;;;;;5.70;3.40;;;;;;;30.70;22.54;100039.02;108289;1252;72480;-68
2023/10/24 10:49:50;;;;;;;4.20;3.20;;;;;;;30.38;22.99;100038.77;108120;1254;60430;-69
2023/10/24 10:52:39;;;;;;;7.20;3.90;;;;;;;30.03;23.56;100035.05;108282;1252;60319;-67
2023/10/24 10:55:25;;;;;;;5.30;3.30;;;;;;;29.27;23.88;100032.68;108299;1252;72466;-69
2023/10/24 10:58:23;;;;;;;7.40;4.60;;;;;;;28.48;24.59;100034.55;108331;1256;69141;-68
2023/10/24 11:00:57;;;;;;;7.10;4.20;;;;;;;27.50;25.95;100032.67;107815;1257;72791;-68
2023/10/24 11:03:36;;;;;;;6.10;4.30;;;;;;;27.09;26.91;100033.20;108200;1253;60306;-67
2023/10/24 11:06:09;;;;;;;6.50;4.30;;;;;;;26.68;27.20;100033.60;108239;1253;60868;-68
2023/10/24 11:08:36;;;;;;;6.70;4.50;;;;;;;26.53;27.81;100036.02;108219;1254;74346;-68
2023/10/24 11:11:09;;;;;;;8.40;5.20;;;;;;;26.66;28.26;100037.65;108301;1256;71572;-67
2023/10/24 11:13:38;;;;;;;7.10;4.60;;;;;;;26.80;27.75;100027.77;108321;1254;72815;-68
2023/10/24 11:16:06;;;;;;;7.60;5.40;;;;;;;26.81;27.79;100021.70;108208;1254;60393;-68
2023/10/24 11:18:47;;;;;;;6.70;4.80;;;;;;;26.56;28.24;100016.83;108206;1256;60387;-67